﻿<?xml version="1.0" encoding="UTF-8" standalone="no" ?>
<gpx xmlns="http://www.topografix.com/GPX/1/1" creator="CompeGPS" version="1.1" xmlns:xsi="http://www.w3.org/2001/XMLSchema-instance" xsi:schemaLocation="http://www.topografix.com/GPX/1/1 http://www.topografix.com/GPX/1/1/gpx.xsd http://www.garmin.com/xmlschemas/GpxExtensions/v3 http://www.garmin.com/xmlschemas/GpxExtensionsv3.xsd http://www.garmin.com/xmlschemas/TrackPointExtension/v1 http://www.garmin.com/xmlschemas/TrackPointExtensionv1.xsd" xmlns:gpxtpx="http://www.garmin.com/xmlschemas/TrackPointExtension/v1">
  <metadata>
    <link href="http://www.compegps.com">
      <text>CompeGPS TEAM, SL</text>
    </link>
    <time>2012-11-07T19:03:04Z</time>
    <bounds maxlat="42.873623" maxlon="1.564232" minlat="42.867369" minlon="1.554676"/>
  </metadata>
<wpt lat="42.873545" lon="1.562682">
<ele>653.000000</ele>
<name>Parking Depart</name>
</wpt>
<wpt lat="42.868488" lon="1.562658">
<ele>700.000000</ele>
<name>Secteur Grottes</name>
</wpt>
<wpt lat="42.867982" lon="1.561057">
<ele>722.000000</ele>
<name>Bifurcation a droite</name>
</wpt>
<wpt lat="42.868936" lon="1.559698">
<ele>830.000000</ele>
<name>Depart de la voie</name>
</wpt>
<wpt lat="42.869616" lon="1.559901">
<ele>980.000000</ele>
<name>Sommet de la voie</name>
</wpt>
<wpt lat="42.869713" lon="1.558035">
<ele>1002.000000</ele>
<name>Tour du chateau</name>
</wpt>
<wpt lat="42.869895" lon="1.556265">
<ele>960.000000</ele>
<name>Descendre a gauche</name>
</wpt>
<wpt lat="42.869095" lon="1.554760">
<ele>850.000000</ele>
<name>Pied des parois</name>
</wpt>
<wpt lat="42.867622" lon="1.555090">
<ele>810.000000</ele>
<name>Col d_Ijou</name>
</wpt>
  <trk>
    <name>Calames - Rioby</name>
    <trkseg>
      <trkpt lat="42.873346" lon="1.562830">
        <ele>648.5</ele>
        <time>2012-11-07T09:30:12Z</time>
        <name>Parking Depart</name>
      </trkpt>
      <trkpt lat="42.873285" lon="1.562960">
        <ele>654.8</ele>
        <time>2012-11-07T09:30:30Z</time>
      </trkpt>
      <trkpt lat="42.873141" lon="1.563022">
        <ele>659.0</ele>
        <time>2012-11-07T09:30:39Z</time>
      </trkpt>
      <trkpt lat="42.873065" lon="1.563089">
        <ele>659.1</ele>
        <time>2012-11-07T09:30:49Z</time>
      </trkpt>
      <trkpt lat="42.872968" lon="1.563064">
        <ele>660.1</ele>
        <time>2012-11-07T09:30:58Z</time>
      </trkpt>
      <trkpt lat="42.872866" lon="1.563048">
        <ele>661.0</ele>
        <time>2012-11-07T09:31:07Z</time>
      </trkpt>
      <trkpt lat="42.872758" lon="1.563169">
        <ele>662.0</ele>
        <time>2012-11-07T09:31:15Z</time>
      </trkpt>
      <trkpt lat="42.872691" lon="1.563326">
        <ele>660.6</ele>
        <time>2012-11-07T09:31:24Z</time>
      </trkpt>
      <trkpt lat="42.872678" lon="1.563495">
        <ele>659.6</ele>
        <time>2012-11-07T09:31:33Z</time>
      </trkpt>
      <trkpt lat="42.872639" lon="1.563606">
        <ele>659.6</ele>
        <time>2012-11-07T09:31:41Z</time>
      </trkpt>
      <trkpt lat="42.872556" lon="1.563681">
        <ele>659.6</ele>
        <time>2012-11-07T09:31:50Z</time>
      </trkpt>
      <trkpt lat="42.872471" lon="1.563775">
        <ele>659.1</ele>
        <time>2012-11-07T09:31:58Z</time>
      </trkpt>
      <trkpt lat="42.872398" lon="1.563876">
        <ele>658.2</ele>
        <time>2012-11-07T09:32:06Z</time>
      </trkpt>
      <trkpt lat="42.872308" lon="1.563945">
        <ele>657.2</ele>
        <time>2012-11-07T09:32:14Z</time>
      </trkpt>
      <trkpt lat="42.872209" lon="1.563990">
        <ele>657.2</ele>
        <time>2012-11-07T09:32:23Z</time>
      </trkpt>
      <trkpt lat="42.872111" lon="1.564021">
        <ele>657.7</ele>
        <time>2012-11-07T09:32:32Z</time>
      </trkpt>
      <trkpt lat="42.871979" lon="1.564074">
        <ele>658.2</ele>
        <time>2012-11-07T09:32:41Z</time>
      </trkpt>
      <trkpt lat="42.871894" lon="1.564065">
        <ele>659.1</ele>
        <time>2012-11-07T09:32:50Z</time>
      </trkpt>
      <trkpt lat="42.871809" lon="1.563982">
        <ele>661.5</ele>
        <time>2012-11-07T09:32:59Z</time>
      </trkpt>
      <trkpt lat="42.871690" lon="1.563930">
        <ele>663.5</ele>
        <time>2012-11-07T09:33:10Z</time>
      </trkpt>
      <trkpt lat="42.871587" lon="1.563839">
        <ele>665.8</ele>
        <time>2012-11-07T09:33:22Z</time>
      </trkpt>
      <trkpt lat="42.871459" lon="1.563739">
        <ele>668.7</ele>
        <time>2012-11-07T09:33:39Z</time>
      </trkpt>
      <trkpt lat="42.871344" lon="1.563819">
        <ele>672.6</ele>
        <time>2012-11-07T09:33:57Z</time>
      </trkpt>
      <trkpt lat="42.871223" lon="1.563949">
        <ele>675.5</ele>
        <time>2012-11-07T09:34:12Z</time>
      </trkpt>
      <trkpt lat="42.871096" lon="1.564039">
        <ele>676.9</ele>
        <time>2012-11-07T09:34:23Z</time>
      </trkpt>
      <trkpt lat="42.870993" lon="1.564102">
        <ele>677.9</ele>
        <time>2012-11-07T09:34:34Z</time>
      </trkpt>
      <trkpt lat="42.870882" lon="1.564094">
        <ele>679.8</ele>
        <time>2012-11-07T09:34:44Z</time>
      </trkpt>
      <trkpt lat="42.870777" lon="1.564092">
        <ele>682.2</ele>
        <time>2012-11-07T09:34:57Z</time>
      </trkpt>
      <trkpt lat="42.870675" lon="1.564078">
        <ele>685.6</ele>
        <time>2012-11-07T09:35:11Z</time>
      </trkpt>
      <trkpt lat="42.870558" lon="1.564095">
        <ele>688.4</ele>
        <time>2012-11-07T09:35:26Z</time>
      </trkpt>
      <trkpt lat="42.870442" lon="1.564115">
        <ele>690.8</ele>
        <time>2012-11-07T09:35:42Z</time>
      </trkpt>
      <trkpt lat="42.870317" lon="1.564143">
        <ele>693.7</ele>
        <time>2012-11-07T09:35:58Z</time>
      </trkpt>
      <trkpt lat="42.870205" lon="1.564166">
        <ele>695.7</ele>
        <time>2012-11-07T09:36:12Z</time>
      </trkpt>
      <trkpt lat="42.870092" lon="1.564187">
        <ele>697.6</ele>
        <time>2012-11-07T09:36:26Z</time>
      </trkpt>
      <trkpt lat="42.869974" lon="1.564232">
        <ele>699.0</ele>
        <time>2012-11-07T09:36:38Z</time>
      </trkpt>
      <trkpt lat="42.869867" lon="1.564221">
        <ele>700.5</ele>
        <time>2012-11-07T09:36:48Z</time>
      </trkpt>
      <trkpt lat="42.869779" lon="1.564146">
        <ele>701.9</ele>
        <time>2012-11-07T09:36:58Z</time>
      </trkpt>
      <trkpt lat="42.869702" lon="1.564045">
        <ele>703.3</ele>
        <time>2012-11-07T09:37:08Z</time>
      </trkpt>
      <trkpt lat="42.869637" lon="1.563947">
        <ele>703.8</ele>
        <time>2012-11-07T09:37:17Z</time>
      </trkpt>
      <trkpt lat="42.869553" lon="1.563875">
        <ele>705.3</ele>
        <time>2012-11-07T09:37:28Z</time>
      </trkpt>
      <trkpt lat="42.869459" lon="1.563778">
        <ele>706.7</ele>
        <time>2012-11-07T09:37:40Z</time>
      </trkpt>
      <trkpt lat="42.869355" lon="1.563701">
        <ele>708.2</ele>
        <time>2012-11-07T09:37:52Z</time>
      </trkpt>
      <trkpt lat="42.869238" lon="1.563685">
        <ele>708.6</ele>
        <time>2012-11-07T09:38:03Z</time>
      </trkpt>
      <trkpt lat="42.869137" lon="1.563696">
        <ele>707.7</ele>
        <time>2012-11-07T09:38:14Z</time>
      </trkpt>
      <trkpt lat="42.869023" lon="1.563747">
        <ele>706.7</ele>
        <time>2012-11-07T09:38:24Z</time>
      </trkpt>
      <trkpt lat="42.868918" lon="1.563708">
        <ele>705.3</ele>
        <time>2012-11-07T09:38:33Z</time>
      </trkpt>
      <trkpt lat="42.868836" lon="1.563623">
        <ele>703.8</ele>
        <time>2012-11-07T09:38:43Z</time>
      </trkpt>
      <trkpt lat="42.868760" lon="1.563540">
        <ele>702.9</ele>
        <time>2012-11-07T09:38:53Z</time>
      </trkpt>
      <trkpt lat="42.868707" lon="1.563437">
        <ele>700.9</ele>
        <time>2012-11-07T09:39:03Z</time>
      </trkpt>
      <trkpt lat="42.868679" lon="1.563324">
        <ele>700.5</ele>
        <time>2012-11-07T09:39:13Z</time>
      </trkpt>
      <trkpt lat="42.868612" lon="1.563211">
        <ele>699.0</ele>
        <time>2012-11-07T09:39:24Z</time>
      </trkpt>
      <trkpt lat="42.868523" lon="1.563109">
        <ele>696.6</ele>
        <time>2012-11-07T09:39:35Z</time>
      </trkpt>
      <trkpt lat="42.868505" lon="1.562958">
        <ele>695.2</ele>
        <time>2012-11-07T09:39:45Z</time>
      </trkpt>
      <trkpt lat="42.868493" lon="1.562803">
        <ele>695.7</ele>
        <time>2012-11-07T09:39:57Z</time>
      </trkpt>
      <trkpt lat="42.868488" lon="1.562658">
        <ele>696.6</ele>
        <time>2012-11-07T09:40:10Z</time>
        <name>Secteur Grottes</name>
      </trkpt>
      <trkpt lat="42.868416" lon="1.562449">
        <ele>698.5</ele>
        <time>2012-11-07T09:40:33Z</time>
      </trkpt>
      <trkpt lat="42.868404" lon="1.562320">
        <ele>700.5</ele>
        <time>2012-11-07T09:40:44Z</time>
      </trkpt>
      <trkpt lat="42.868326" lon="1.562195">
        <ele>702.9</ele>
        <time>2012-11-07T09:40:57Z</time>
      </trkpt>
      <trkpt lat="42.868302" lon="1.562066">
        <ele>704.3</ele>
        <time>2012-11-07T09:41:08Z</time>
      </trkpt>
      <trkpt lat="42.868266" lon="1.561924">
        <ele>706.7</ele>
        <time>2012-11-07T09:41:21Z</time>
      </trkpt>
      <trkpt lat="42.868279" lon="1.561794">
        <ele>710.1</ele>
        <time>2012-11-07T09:41:36Z</time>
      </trkpt>
      <trkpt lat="42.868259" lon="1.561663">
        <ele>713.0</ele>
        <time>2012-11-07T09:41:53Z</time>
      </trkpt>
      <trkpt lat="42.868175" lon="1.561519">
        <ele>713.9</ele>
        <time>2012-11-07T09:42:04Z</time>
      </trkpt>
      <trkpt lat="42.868108" lon="1.561357">
        <ele>715.8</ele>
        <time>2012-11-07T09:42:18Z</time>
      </trkpt>
      <trkpt lat="42.868043" lon="1.561222">
        <ele>717.3</ele>
        <time>2012-11-07T09:42:30Z</time>
      </trkpt>
      <trkpt lat="42.867982" lon="1.561057">
        <ele>721.6</ele>
        <time>2012-11-07T09:42:48Z</time>
        <name>Bifurcation a droite</name>
      </trkpt>
      <trkpt lat="42.868029" lon="1.560968">
        <ele>725.9</ele>
        <time>2012-11-07T09:43:09Z</time>
      </trkpt>
      <trkpt lat="42.868023" lon="1.560853">
        <ele>729.8</ele>
        <time>2012-11-07T09:43:29Z</time>
      </trkpt>
      <trkpt lat="42.868083" lon="1.560805">
        <ele>734.6</ele>
        <time>2012-11-07T09:43:50Z</time>
      </trkpt>
      <trkpt lat="42.868128" lon="1.560705">
        <ele>738.9</ele>
        <time>2012-11-07T09:44:13Z</time>
      </trkpt>
      <trkpt lat="42.868237" lon="1.560682">
        <ele>745.6</ele>
        <time>2012-11-07T09:44:39Z</time>
      </trkpt>
      <trkpt lat="42.868290" lon="1.560634">
        <ele>750.0</ele>
        <time>2012-11-07T09:45:11Z</time>
      </trkpt>
      <trkpt lat="42.868346" lon="1.560545">
        <ele>757.2</ele>
        <time>2012-11-07T09:45:43Z</time>
      </trkpt>
      <trkpt lat="42.868337" lon="1.560418">
        <ele>762.5</ele>
        <time>2012-11-07T09:46:03Z</time>
      </trkpt>
      <trkpt lat="42.868386" lon="1.560347">
        <ele>767.3</ele>
        <time>2012-11-07T09:46:23Z</time>
      </trkpt>
      <trkpt lat="42.868389" lon="1.560235">
        <ele>772.6</ele>
        <time>2012-11-07T09:46:47Z</time>
      </trkpt>
      <trkpt lat="42.868392" lon="1.560140">
        <ele>775.4</ele>
        <time>2012-11-07T09:47:34Z</time>
      </trkpt>
      <trkpt lat="42.868372" lon="1.560044">
        <ele>775.4</ele>
        <time>2012-11-07T09:47:49Z</time>
      </trkpt>
      <trkpt lat="42.868370" lon="1.559907">
        <ele>778.8</ele>
        <time>2012-11-07T09:48:02Z</time>
      </trkpt>
      <trkpt lat="42.868362" lon="1.559780">
        <ele>781.2</ele>
        <time>2012-11-07T09:48:15Z</time>
      </trkpt>
      <trkpt lat="42.868400" lon="1.559663">
        <ele>786.5</ele>
        <time>2012-11-07T09:48:33Z</time>
      </trkpt>
      <trkpt lat="42.868409" lon="1.559535">
        <ele>790.8</ele>
        <time>2012-11-07T09:48:50Z</time>
      </trkpt>
      <trkpt lat="42.868445" lon="1.559434">
        <ele>795.2</ele>
        <time>2012-11-07T09:49:20Z</time>
      </trkpt>
      <trkpt lat="42.868528" lon="1.559441">
        <ele>800.4</ele>
        <time>2012-11-07T09:49:44Z</time>
      </trkpt>
      <trkpt lat="42.868629" lon="1.559511">
        <ele>805.2</ele>
        <time>2012-11-07T09:50:05Z</time>
      </trkpt>
      <trkpt lat="42.868674" lon="1.559504">
        <ele>808.6</ele>
        <time>2012-11-07T09:50:37Z</time>
      </trkpt>
      <trkpt lat="42.868720" lon="1.559543">
        <ele>810.5</ele>
        <time>2012-11-07T09:52:11Z</time>
      </trkpt>
      <trkpt lat="42.868765" lon="1.559678">
        <ele>814.8</ele>
        <time>2012-11-07T09:52:39Z</time>
      </trkpt>
      <trkpt lat="42.868837" lon="1.559747">
        <ele>820.1</ele>
        <time>2012-11-07T09:53:25Z</time>
      </trkpt>
      <trkpt lat="42.868913" lon="1.559708">
        <ele>830.7</ele>
        <time>2012-11-07T09:56:39Z</time>
      </trkpt>
      <trkpt lat="42.868936" lon="1.559698">
        <ele>835.5</ele>
        <time>2012-11-07T09:59:10Z</time>
        <name>Depart de la voie</name>
      </trkpt>
      <trkpt lat="42.868984" lon="1.559721">
        <ele>835.0</ele>
        <time>2012-11-07T10:17:59Z</time>
      </trkpt>
      <trkpt lat="42.869009" lon="1.559696">
        <ele>844.7</ele>
        <time>2012-11-07T10:27:54Z</time>
      </trkpt>
      <trkpt lat="42.869035" lon="1.559684">
        <ele>854.3</ele>
        <time>2012-11-07T10:29:34Z</time>
      </trkpt>
      <trkpt lat="42.869058" lon="1.559710">
        <ele>864.8</ele>
        <time>2012-11-07T10:32:21Z</time>
      </trkpt>
      <trkpt lat="42.869119" lon="1.559699">
        <ele>888.9</ele>
        <time>2012-11-07T10:43:01Z</time>
      </trkpt>
      <trkpt lat="42.869174" lon="1.559666">
        <ele>917.2</ele>
        <time>2012-11-07T11:18:34Z</time>
      </trkpt>
      <trkpt lat="42.869214" lon="1.559678">
        <ele>927.8</ele>
        <time>2012-11-07T11:21:00Z</time>
      </trkpt>
      <trkpt lat="42.869232" lon="1.559701">
        <ele>935.0</ele>
        <time>2012-11-07T11:26:22Z</time>
      </trkpt>
      <trkpt lat="42.869253" lon="1.559762">
        <ele>938.4</ele>
        <time>2012-11-07T11:30:24Z</time>
      </trkpt>
      <trkpt lat="42.869269" lon="1.559835">
        <ele>947.5</ele>
        <time>2012-11-07T11:33:57Z</time>
      </trkpt>
      <trkpt lat="42.869336" lon="1.559874">
        <ele>957.1</ele>
        <time>2012-11-07T11:40:11Z</time>
      </trkpt>
      <trkpt lat="42.869411" lon="1.559880">
        <ele>955.7</ele>
        <time>2012-11-07T12:00:45Z</time>
      </trkpt>
      <trkpt lat="42.869453" lon="1.559809">
        <ele>962.9</ele>
        <time>2012-11-07T12:02:06Z</time>
      </trkpt>
      <trkpt lat="42.869471" lon="1.559784">
        <ele>961.5</ele>
        <time>2012-11-07T12:23:04Z</time>
      </trkpt>
      <trkpt lat="42.869547" lon="1.559868">
        <ele>973.5</ele>
        <time>2012-11-07T12:27:04Z</time>
      </trkpt>
      <trkpt lat="42.869596" lon="1.559892">
        <ele>986.0</ele>
        <time>2012-11-07T12:31:07Z</time>
      </trkpt>
      <trkpt lat="42.869616" lon="1.559901">
        <ele>986.9</ele>
        <time>2012-11-07T12:32:58Z</time>
        <name>Sommet de la voie</name>
      </trkpt>
      <trkpt lat="42.869617" lon="1.559874">
        <ele>987.4</ele>
        <time>2012-11-07T12:45:32Z</time>
      </trkpt>
      <trkpt lat="42.869673" lon="1.559785">
        <ele>988.8</ele>
        <time>2012-11-07T12:46:00Z</time>
      </trkpt>
      <trkpt lat="42.869718" lon="1.559685">
        <ele>993.7</ele>
        <time>2012-11-07T12:46:19Z</time>
      </trkpt>
      <trkpt lat="42.869789" lon="1.559598">
        <ele>996.5</ele>
        <time>2012-11-07T12:47:07Z</time>
      </trkpt>
      <trkpt lat="42.869857" lon="1.559474">
        <ele>1000.9</ele>
        <time>2012-11-07T12:47:36Z</time>
      </trkpt>
      <trkpt lat="42.869849" lon="1.559352">
        <ele>1004.7</ele>
        <time>2012-11-07T12:47:55Z</time>
      </trkpt>
      <trkpt lat="42.869853" lon="1.559242">
        <ele>1006.2</ele>
        <time>2012-11-07T12:48:09Z</time>
      </trkpt>
      <trkpt lat="42.869870" lon="1.559114">
        <ele>1009.0</ele>
        <time>2012-11-07T12:48:24Z</time>
      </trkpt>
      <trkpt lat="42.869899" lon="1.558996">
        <ele>1010.0</ele>
        <time>2012-11-07T12:48:38Z</time>
      </trkpt>
      <trkpt lat="42.869934" lon="1.558865">
        <ele>1009.0</ele>
        <time>2012-11-07T12:48:53Z</time>
      </trkpt>
      <trkpt lat="42.869948" lon="1.558743">
        <ele>1010.5</ele>
        <time>2012-11-07T12:49:08Z</time>
      </trkpt>
      <trkpt lat="42.869905" lon="1.558647">
        <ele>1011.0</ele>
        <time>2012-11-07T12:49:22Z</time>
      </trkpt>
      <trkpt lat="42.869877" lon="1.558559">
        <ele>1010.5</ele>
        <time>2012-11-07T12:50:00Z</time>
      </trkpt>
      <trkpt lat="42.869834" lon="1.558396">
        <ele>1011.9</ele>
        <time>2012-11-07T12:50:16Z</time>
      </trkpt>
      <trkpt lat="42.869765" lon="1.558264">
        <ele>1011.9</ele>
        <time>2012-11-07T12:50:34Z</time>
      </trkpt>
      <trkpt lat="42.869716" lon="1.558165">
        <ele>1012.9</ele>
        <time>2012-11-07T12:50:50Z</time>
      </trkpt>
      <trkpt lat="42.869713" lon="1.558035">
        <ele>1011.4</ele>
        <time>2012-11-07T12:51:09Z</time>
        <name>Tour du chateau</name>
      </trkpt>
      <trkpt lat="42.869684" lon="1.557965">
        <ele>1008.6</ele>
        <time>2012-11-07T13:23:04Z</time>
      </trkpt>
      <trkpt lat="42.869637" lon="1.557861">
        <ele>1008.1</ele>
        <time>2012-11-07T13:23:14Z</time>
      </trkpt>
      <trkpt lat="42.869615" lon="1.557728">
        <ele>1008.1</ele>
        <time>2012-11-07T13:23:25Z</time>
      </trkpt>
      <trkpt lat="42.869632" lon="1.557600">
        <ele>1007.6</ele>
        <time>2012-11-07T13:23:35Z</time>
      </trkpt>
      <trkpt lat="42.869683" lon="1.557484">
        <ele>1004.2</ele>
        <time>2012-11-07T13:23:54Z</time>
      </trkpt>
      <trkpt lat="42.869714" lon="1.557380">
        <ele>1000.9</ele>
        <time>2012-11-07T13:24:09Z</time>
      </trkpt>
      <trkpt lat="42.869718" lon="1.557246">
        <ele>998.0</ele>
        <time>2012-11-07T13:24:21Z</time>
      </trkpt>
      <trkpt lat="42.869727" lon="1.557112">
        <ele>996.5</ele>
        <time>2012-11-07T13:24:30Z</time>
      </trkpt>
      <trkpt lat="42.869730" lon="1.556981">
        <ele>994.1</ele>
        <time>2012-11-07T13:24:40Z</time>
      </trkpt>
      <trkpt lat="42.869697" lon="1.556874">
        <ele>992.7</ele>
        <time>2012-11-07T13:24:50Z</time>
      </trkpt>
      <trkpt lat="42.869730" lon="1.556756">
        <ele>990.3</ele>
        <time>2012-11-07T13:25:05Z</time>
      </trkpt>
      <trkpt lat="42.869746" lon="1.556636">
        <ele>986.9</ele>
        <time>2012-11-07T13:25:21Z</time>
      </trkpt>
      <trkpt lat="42.869805" lon="1.556552">
        <ele>983.1</ele>
        <time>2012-11-07T13:25:37Z</time>
      </trkpt>
      <trkpt lat="42.869896" lon="1.556507">
        <ele>978.3</ele>
        <time>2012-11-07T13:25:56Z</time>
      </trkpt>
      <trkpt lat="42.869888" lon="1.556384">
        <ele>976.4</ele>
        <time>2012-11-07T13:26:09Z</time>
      </trkpt>
      <trkpt lat="42.869895" lon="1.556265">
        <ele>974.4</ele>
        <time>2012-11-07T13:26:31Z</time>
        <name>Descendre a gauche</name>
      </trkpt>
      <trkpt lat="42.869853" lon="1.556207">
        <ele>969.2</ele>
        <time>2012-11-07T13:26:51Z</time>
      </trkpt>
      <trkpt lat="42.869783" lon="1.556144">
        <ele>964.8</ele>
        <time>2012-11-07T13:27:07Z</time>
      </trkpt>
      <trkpt lat="42.869757" lon="1.556052">
        <ele>960.5</ele>
        <time>2012-11-07T13:27:25Z</time>
      </trkpt>
      <trkpt lat="42.869762" lon="1.555914">
        <ele>955.2</ele>
        <time>2012-11-07T13:27:42Z</time>
      </trkpt>
      <trkpt lat="42.869772" lon="1.555838">
        <ele>951.4</ele>
        <time>2012-11-07T13:28:00Z</time>
      </trkpt>
      <trkpt lat="42.869703" lon="1.555770">
        <ele>944.6</ele>
        <time>2012-11-07T13:28:32Z</time>
      </trkpt>
      <trkpt lat="42.869680" lon="1.555647">
        <ele>937.4</ele>
        <time>2012-11-07T13:29:02Z</time>
      </trkpt>
      <trkpt lat="42.869693" lon="1.555534">
        <ele>932.6</ele>
        <time>2012-11-07T13:29:20Z</time>
      </trkpt>
      <trkpt lat="42.869596" lon="1.555456">
        <ele>924.9</ele>
        <time>2012-11-07T13:29:49Z</time>
      </trkpt>
      <trkpt lat="42.869621" lon="1.555361">
        <ele>919.6</ele>
        <time>2012-11-07T13:30:09Z</time>
      </trkpt>
      <trkpt lat="42.869633" lon="1.555276">
        <ele>916.3</ele>
        <time>2012-11-07T13:30:50Z</time>
      </trkpt>
      <trkpt lat="42.869582" lon="1.555249">
        <ele>911.0</ele>
        <time>2012-11-07T13:31:11Z</time>
      </trkpt>
      <trkpt lat="42.869540" lon="1.555136">
        <ele>903.8</ele>
        <time>2012-11-07T13:31:56Z</time>
      </trkpt>
      <trkpt lat="42.869540" lon="1.555023">
        <ele>899.0</ele>
        <time>2012-11-07T13:32:14Z</time>
      </trkpt>
      <trkpt lat="42.869537" lon="1.554901">
        <ele>893.7</ele>
        <time>2012-11-07T13:32:39Z</time>
      </trkpt>
      <trkpt lat="42.869420" lon="1.554909">
        <ele>887.0</ele>
        <time>2012-11-07T13:33:04Z</time>
      </trkpt>
      <trkpt lat="42.869333" lon="1.554869">
        <ele>880.2</ele>
        <time>2012-11-07T13:33:27Z</time>
      </trkpt>
      <trkpt lat="42.869298" lon="1.554744">
        <ele>874.0</ele>
        <time>2012-11-07T13:33:48Z</time>
      </trkpt>
      <trkpt lat="42.869230" lon="1.554676">
        <ele>867.2</ele>
        <time>2012-11-07T13:34:07Z</time>
      </trkpt>
      <trkpt lat="42.869095" lon="1.554760">
        <ele>862.9</ele>
        <time>2012-11-07T13:34:32Z</time>
        <name>Pied des parois</name>
      </trkpt>
      <trkpt lat="42.868983" lon="1.554820">
        <ele>858.1</ele>
        <time>2012-11-07T13:35:06Z</time>
      </trkpt>
      <trkpt lat="42.868826" lon="1.554800">
        <ele>851.9</ele>
        <time>2012-11-07T13:35:24Z</time>
      </trkpt>
      <trkpt lat="42.868678" lon="1.554870">
        <ele>847.5</ele>
        <time>2012-11-07T13:35:45Z</time>
      </trkpt>
      <trkpt lat="42.868562" lon="1.555019">
        <ele>848.5</ele>
        <time>2012-11-07T13:35:59Z</time>
      </trkpt>
      <trkpt lat="42.868431" lon="1.555185">
        <ele>849.0</ele>
        <time>2012-11-07T13:36:30Z</time>
      </trkpt>
      <trkpt lat="42.868259" lon="1.555269">
        <ele>844.2</ele>
        <time>2012-11-07T13:36:50Z</time>
      </trkpt>
      <trkpt lat="42.868137" lon="1.555210">
        <ele>839.8</ele>
        <time>2012-11-07T13:37:03Z</time>
      </trkpt>
      <trkpt lat="42.868022" lon="1.555157">
        <ele>834.1</ele>
        <time>2012-11-07T13:37:19Z</time>
      </trkpt>
      <trkpt lat="42.867867" lon="1.555107">
        <ele>827.8</ele>
        <time>2012-11-07T13:37:36Z</time>
      </trkpt>
      <trkpt lat="42.867742" lon="1.555054">
        <ele>825.0</ele>
        <time>2012-11-07T13:37:47Z</time>
      </trkpt>
      <trkpt lat="42.867622" lon="1.555090">
        <ele>822.5</ele>
        <time>2012-11-07T13:37:55Z</time>
        <name>Col d_Ijou</name>
      </trkpt>
      <trkpt lat="42.867582" lon="1.555225">
        <ele>821.1</ele>
        <time>2012-11-07T13:38:06Z</time>
      </trkpt>
      <trkpt lat="42.867597" lon="1.555371">
        <ele>817.3</ele>
        <time>2012-11-07T13:38:22Z</time>
      </trkpt>
      <trkpt lat="42.867564" lon="1.555527">
        <ele>812.5</ele>
        <time>2012-11-07T13:38:35Z</time>
      </trkpt>
      <trkpt lat="42.867466" lon="1.555726">
        <ele>808.1</ele>
        <time>2012-11-07T13:38:49Z</time>
      </trkpt>
      <trkpt lat="42.867416" lon="1.555914">
        <ele>804.8</ele>
        <time>2012-11-07T13:39:01Z</time>
      </trkpt>
      <trkpt lat="42.867446" lon="1.556069">
        <ele>801.9</ele>
        <time>2012-11-07T13:39:12Z</time>
      </trkpt>
      <trkpt lat="42.867420" lon="1.556278">
        <ele>799.0</ele>
        <time>2012-11-07T13:39:26Z</time>
      </trkpt>
      <trkpt lat="42.867397" lon="1.556512">
        <ele>796.1</ele>
        <time>2012-11-07T13:39:40Z</time>
      </trkpt>
      <trkpt lat="42.867380" lon="1.556748">
        <ele>792.3</ele>
        <time>2012-11-07T13:39:55Z</time>
      </trkpt>
      <trkpt lat="42.867369" lon="1.556953">
        <ele>790.8</ele>
        <time>2012-11-07T13:40:09Z</time>
      </trkpt>
      <trkpt lat="42.867390" lon="1.557094">
        <ele>788.9</ele>
        <time>2012-11-07T13:40:17Z</time>
      </trkpt>
      <trkpt lat="42.867416" lon="1.557252">
        <ele>787.0</ele>
        <time>2012-11-07T13:40:26Z</time>
      </trkpt>
      <trkpt lat="42.867467" lon="1.557394">
        <ele>786.0</ele>
        <time>2012-11-07T13:40:35Z</time>
      </trkpt>
      <trkpt lat="42.867515" lon="1.557554">
        <ele>785.5</ele>
        <time>2012-11-07T13:40:47Z</time>
      </trkpt>
      <trkpt lat="42.867506" lon="1.557739">
        <ele>781.2</ele>
        <time>2012-11-07T13:41:03Z</time>
      </trkpt>
      <trkpt lat="42.867529" lon="1.557885">
        <ele>778.3</ele>
        <time>2012-11-07T13:41:14Z</time>
      </trkpt>
      <trkpt lat="42.867562" lon="1.558044">
        <ele>775.4</ele>
        <time>2012-11-07T13:41:27Z</time>
      </trkpt>
      <trkpt lat="42.867575" lon="1.558213">
        <ele>773.0</ele>
        <time>2012-11-07T13:41:37Z</time>
      </trkpt>
      <trkpt lat="42.867626" lon="1.558380">
        <ele>770.6</ele>
        <time>2012-11-07T13:41:47Z</time>
      </trkpt>
      <trkpt lat="42.867669" lon="1.558549">
        <ele>768.2</ele>
        <time>2012-11-07T13:41:58Z</time>
      </trkpt>
      <trkpt lat="42.867642" lon="1.558705">
        <ele>762.9</ele>
        <time>2012-11-07T13:42:20Z</time>
      </trkpt>
      <trkpt lat="42.867664" lon="1.558901">
        <ele>759.1</ele>
        <time>2012-11-07T13:42:35Z</time>
      </trkpt>
      <trkpt lat="42.867701" lon="1.559141">
        <ele>754.3</ele>
        <time>2012-11-07T13:42:52Z</time>
      </trkpt>
      <trkpt lat="42.867771" lon="1.559340">
        <ele>752.4</ele>
        <time>2012-11-07T13:43:06Z</time>
      </trkpt>
      <trkpt lat="42.867788" lon="1.559532">
        <ele>749.5</ele>
        <time>2012-11-07T13:43:17Z</time>
      </trkpt>
      <trkpt lat="42.867791" lon="1.559736">
        <ele>744.7</ele>
        <time>2012-11-07T13:43:31Z</time>
      </trkpt>
      <trkpt lat="42.867817" lon="1.559950">
        <ele>742.3</ele>
        <time>2012-11-07T13:43:44Z</time>
      </trkpt>
      <trkpt lat="42.867855" lon="1.560170">
        <ele>737.0</ele>
        <time>2012-11-07T13:44:00Z</time>
      </trkpt>
      <trkpt lat="42.867862" lon="1.560421">
        <ele>733.1</ele>
        <time>2012-11-07T13:44:15Z</time>
      </trkpt>
      <trkpt lat="42.867912" lon="1.560575">
        <ele>729.8</ele>
        <time>2012-11-07T13:44:28Z</time>
      </trkpt>
      <trkpt lat="42.867910" lon="1.560747">
        <ele>725.5</ele>
        <time>2012-11-07T13:44:41Z</time>
      </trkpt>
      <trkpt lat="42.867961" lon="1.560901">
        <ele>724.0</ele>
        <time>2012-11-07T13:44:53Z</time>
      </trkpt>
      <trkpt lat="42.868000" lon="1.561027">
        <ele>721.6</ele>
        <time>2012-11-07T13:45:04Z</time>
      </trkpt>
      <trkpt lat="42.868040" lon="1.561170">
        <ele>718.2</ele>
        <time>2012-11-07T13:45:14Z</time>
      </trkpt>
      <trkpt lat="42.868077" lon="1.561307">
        <ele>716.3</ele>
        <time>2012-11-07T13:45:24Z</time>
      </trkpt>
      <trkpt lat="42.868147" lon="1.561444">
        <ele>714.9</ele>
        <time>2012-11-07T13:45:40Z</time>
      </trkpt>
      <trkpt lat="42.868205" lon="1.561605">
        <ele>713.0</ele>
        <time>2012-11-07T13:45:53Z</time>
      </trkpt>
      <trkpt lat="42.868253" lon="1.561779">
        <ele>710.5</ele>
        <time>2012-11-07T13:46:12Z</time>
      </trkpt>
      <trkpt lat="42.868249" lon="1.561934">
        <ele>705.8</ele>
        <time>2012-11-07T13:46:29Z</time>
      </trkpt>
      <trkpt lat="42.868328" lon="1.562105">
        <ele>702.4</ele>
        <time>2012-11-07T13:46:42Z</time>
      </trkpt>
      <trkpt lat="42.868353" lon="1.562307">
        <ele>699.5</ele>
        <time>2012-11-07T13:46:59Z</time>
      </trkpt>
      <trkpt lat="42.868413" lon="1.562567">
        <ele>696.6</ele>
        <time>2012-11-07T13:47:14Z</time>
      </trkpt>
      <trkpt lat="42.868450" lon="1.562863">
        <ele>694.7</ele>
        <time>2012-11-07T13:47:29Z</time>
      </trkpt>
      <trkpt lat="42.868516" lon="1.563055">
        <ele>696.1</ele>
        <time>2012-11-07T13:47:43Z</time>
      </trkpt>
      <trkpt lat="42.868619" lon="1.563166">
        <ele>699.0</ele>
        <time>2012-11-07T13:47:56Z</time>
      </trkpt>
      <trkpt lat="42.868687" lon="1.563299">
        <ele>700.0</ele>
        <time>2012-11-07T13:48:13Z</time>
      </trkpt>
      <trkpt lat="42.868752" lon="1.563447">
        <ele>701.4</ele>
        <time>2012-11-07T13:48:25Z</time>
      </trkpt>
      <trkpt lat="42.868824" lon="1.563574">
        <ele>703.3</ele>
        <time>2012-11-07T13:48:38Z</time>
      </trkpt>
      <trkpt lat="42.868908" lon="1.563668">
        <ele>704.3</ele>
        <time>2012-11-07T13:48:48Z</time>
      </trkpt>
      <trkpt lat="42.869011" lon="1.563715">
        <ele>706.2</ele>
        <time>2012-11-07T13:49:00Z</time>
      </trkpt>
      <trkpt lat="42.869165" lon="1.563645">
        <ele>707.7</ele>
        <time>2012-11-07T13:49:18Z</time>
      </trkpt>
      <trkpt lat="42.869308" lon="1.563679">
        <ele>707.7</ele>
        <time>2012-11-07T13:49:32Z</time>
      </trkpt>
      <trkpt lat="42.869428" lon="1.563757">
        <ele>705.3</ele>
        <time>2012-11-07T13:49:42Z</time>
      </trkpt>
      <trkpt lat="42.869519" lon="1.563851">
        <ele>704.3</ele>
        <time>2012-11-07T13:49:52Z</time>
      </trkpt>
      <trkpt lat="42.869609" lon="1.563945">
        <ele>703.3</ele>
        <time>2012-11-07T13:50:03Z</time>
      </trkpt>
      <trkpt lat="42.869688" lon="1.564054">
        <ele>702.4</ele>
        <time>2012-11-07T13:50:14Z</time>
      </trkpt>
      <trkpt lat="42.869768" lon="1.564149">
        <ele>701.4</ele>
        <time>2012-11-07T13:50:33Z</time>
      </trkpt>
      <trkpt lat="42.869855" lon="1.564226">
        <ele>699.5</ele>
        <time>2012-11-07T13:50:42Z</time>
      </trkpt>
      <trkpt lat="42.869955" lon="1.564229">
        <ele>698.5</ele>
        <time>2012-11-07T13:50:51Z</time>
      </trkpt>
      <trkpt lat="42.870062" lon="1.564172">
        <ele>697.6</ele>
        <time>2012-11-07T13:51:01Z</time>
      </trkpt>
      <trkpt lat="42.870188" lon="1.564122">
        <ele>694.7</ele>
        <time>2012-11-07T13:51:13Z</time>
      </trkpt>
      <trkpt lat="42.870344" lon="1.564073">
        <ele>691.8</ele>
        <time>2012-11-07T13:51:28Z</time>
      </trkpt>
      <trkpt lat="42.870539" lon="1.564066">
        <ele>687.0</ele>
        <time>2012-11-07T13:51:48Z</time>
      </trkpt>
      <trkpt lat="42.870769" lon="1.564067">
        <ele>681.7</ele>
        <time>2012-11-07T13:52:08Z</time>
      </trkpt>
      <trkpt lat="42.870938" lon="1.564103">
        <ele>678.3</ele>
        <time>2012-11-07T13:52:23Z</time>
      </trkpt>
      <trkpt lat="42.871057" lon="1.564050">
        <ele>676.4</ele>
        <time>2012-11-07T13:52:34Z</time>
      </trkpt>
      <trkpt lat="42.871150" lon="1.563980">
        <ele>675.0</ele>
        <time>2012-11-07T13:52:44Z</time>
      </trkpt>
      <trkpt lat="42.871249" lon="1.563880">
        <ele>673.1</ele>
        <time>2012-11-07T13:52:56Z</time>
      </trkpt>
      <trkpt lat="42.871375" lon="1.563754">
        <ele>670.2</ele>
        <time>2012-11-07T13:53:10Z</time>
      </trkpt>
      <trkpt lat="42.871508" lon="1.563771">
        <ele>667.3</ele>
        <time>2012-11-07T13:53:23Z</time>
      </trkpt>
      <trkpt lat="42.871615" lon="1.563899">
        <ele>663.9</ele>
        <time>2012-11-07T13:53:36Z</time>
      </trkpt>
      <trkpt lat="42.871738" lon="1.563935">
        <ele>662.0</ele>
        <time>2012-11-07T13:53:46Z</time>
      </trkpt>
      <trkpt lat="42.871845" lon="1.564033">
        <ele>660.1</ele>
        <time>2012-11-07T13:53:55Z</time>
      </trkpt>
      <trkpt lat="42.871955" lon="1.564082">
        <ele>658.2</ele>
        <time>2012-11-07T13:54:04Z</time>
      </trkpt>
      <trkpt lat="42.872063" lon="1.564041">
        <ele>657.7</ele>
        <time>2012-11-07T13:54:13Z</time>
      </trkpt>
      <trkpt lat="42.872167" lon="1.564004">
        <ele>657.7</ele>
        <time>2012-11-07T13:54:21Z</time>
      </trkpt>
      <trkpt lat="42.872262" lon="1.563987">
        <ele>657.2</ele>
        <time>2012-11-07T13:54:29Z</time>
      </trkpt>
      <trkpt lat="42.872354" lon="1.563914">
        <ele>657.7</ele>
        <time>2012-11-07T13:54:37Z</time>
      </trkpt>
      <trkpt lat="42.872432" lon="1.563813">
        <ele>658.2</ele>
        <time>2012-11-07T13:54:45Z</time>
      </trkpt>
      <trkpt lat="42.872507" lon="1.563692">
        <ele>658.2</ele>
        <time>2012-11-07T13:54:54Z</time>
      </trkpt>
      <trkpt lat="42.872596" lon="1.563621">
        <ele>659.1</ele>
        <time>2012-11-07T13:55:02Z</time>
      </trkpt>
      <trkpt lat="42.872668" lon="1.563517">
        <ele>660.1</ele>
        <time>2012-11-07T13:55:10Z</time>
      </trkpt>
      <trkpt lat="42.872715" lon="1.563391">
        <ele>660.6</ele>
        <time>2012-11-07T13:55:18Z</time>
      </trkpt>
      <trkpt lat="42.872771" lon="1.563275">
        <ele>661.5</ele>
        <time>2012-11-07T13:55:26Z</time>
      </trkpt>
      <trkpt lat="42.872840" lon="1.563174">
        <ele>661.5</ele>
        <time>2012-11-07T13:55:34Z</time>
      </trkpt>
      <trkpt lat="42.872920" lon="1.563117">
        <ele>660.6</ele>
        <time>2012-11-07T13:55:42Z</time>
      </trkpt>
      <trkpt lat="42.873023" lon="1.563082">
        <ele>659.6</ele>
        <time>2012-11-07T13:55:50Z</time>
      </trkpt>
      <trkpt lat="42.873132" lon="1.563040">
        <ele>658.2</ele>
        <time>2012-11-07T13:55:58Z</time>
      </trkpt>
      <trkpt lat="42.873228" lon="1.562983">
        <ele>656.7</ele>
        <time>2012-11-07T13:56:08Z</time>
      </trkpt>
      <trkpt lat="42.873336" lon="1.562931">
        <ele>654.8</ele>
        <time>2012-11-07T13:56:17Z</time>
      </trkpt>
      <trkpt lat="42.873390" lon="1.562868">
        <ele>652.9</ele>
        <time>2012-11-07T13:56:30Z</time>
      </trkpt>
      <trkpt lat="42.873474" lon="1.562868">
        <ele>652.4</ele>
        <time>2012-11-07T13:57:27Z</time>
      </trkpt>
      <trkpt lat="42.873563" lon="1.562792">
        <ele>651.4</ele>
        <time>2012-11-07T13:57:41Z</time>
      </trkpt>
      <trkpt lat="42.873623" lon="1.562711">
        <ele>648.5</ele>
        <time>2012-11-07T13:58:24Z</time>
      </trkpt>
    </trkseg>
  </trk>
</gpx>

